Aérodrome :
LOGIN :

S'inscrire | Disclaimer

   EN    FR    IT 

 










Légende :    VFR   VFR Marginal   IFR   IFR Intensif   IFR Très Intensif
Visi : 
Plafond : 
>= 8 km
>= 3000ft
5 à 8 km
1000 à 3000 ft
1500m à 5 km
500 à 1000 ft
800 à 1500m
200 à 500 ft
< 800m
< 200 ft
Symboles :   Orages  Brouillard  Fortes neiges  Fortes précipitations  Vent > 20 kt
SIGMETs :   Divers  Orages  Givrage  Turbulence  Onde Orograph.  Cendres Volcan.







- Altitude de l'aérodrome : 1 ft
- Voir les cartes d'approche


EGCK - Caernarfon

DERNIER METAR :
  • 162350Z AUTO 22030G44KT 9999 NCD 14/10 Q1010

METARs EXPIRÉS :
  • 162320Z AUTO 21029G43KT 9999 FEW025/// 14/09 Q1009
  • 162250Z AUTO 21030G43KT 9999 NCD 14/09 Q1009
  • 162220Z AUTO 21032G47KT 9999 FEW008/// 14/10 Q1008
  • 162150Z AUTO 21032G47KT 9000 FEW001/// SCT025/// 14/09 Q1007
  • 162120Z AUTO 21036G51KT 9000 FEW000/// BKN024/// 14/10 Q1006

TAF TAF EGCK
Valide du 17 à 00h jusqu'au 17 à 09h UTC


162256Z 1700/1709 21025G40KT 9999 SCT030
PROB30
TEMPO 1700/1709 9000
BECMG 1701/1704 24020G30KT
BECMG 1704/1707 25015KT
PROB30
TEMPO 1707/1709 26018G28KT
Pas de NOTAMs connus pour ce terrain.
2 SIGMETs publiés pour la FIR London (EGTT) :
 
Turbulence forte
EGTT SIGMET 10 VALID 162300/170100 EGRR
EGTT LONDON FIR SEV TURB FCST NW OF LINE N4928 W00800 - N5422 E00425 SFC/FL060 MOV N 10KT NC=
Onde orographique forte
EGTT SIGMET 09 VALID 162100/170100 EGRR
EGTT LONDON FIR SEV MTW FCST N OF LINE N4941 W00800 - N5059 E00128 FL030/200 STNR NC=



MET'MAP, la Météo Aéronautique d'un coup d'oeil ! - Copyright ORBIFLY Décembre 2007 - Disclaimer

ORBIFLY MET'MAP TEAM :

Programmation & Développement : Alexandra Zaïnal
Conception & Développement : Baudouin d'Aumeries
Co-Programmation & Développement : Marc-Olivier Méhu
Soutien technique & logistique : Manuel Goepfert

Contact : metmap@orbifly.com




SOURCES & CREDITS :

   NOAA